Data for 04/13/2016

Time Sea-Level Adjusted Pressure Absolute Pressure Temperature Relative Humidity Dew Point   
(mb) (inHg) (mb) (inHg) (C) (F) (%) (C) (F)
00:05 1015 29.97 845 24.95 12.5 54.6 45 1 33.8
00:10 1015 29.97 845 24.95 12.5 54.5 45 1 33.9
00:15 1015 29.97 844 24.92 12.3 54.2 46 1 33.8
00:20 1015 29.97 844 24.92 12.2 54 46 1 33.7
00:25 1015 29.97 844 24.92 12 53.7 46 0.7 33.2
00:30 1015 29.97 844 24.92 11.9 53.4 46 0.8 33.4
00:35 1015 29.97 844 24.92 11.8 53.2 47 0.8 33.4
00:40 1015 29.97 844 24.92 11.7 53 46 0.6 33.1
00:45 1015 29.97 844 24.92 11.8 53.2 47 0.9 33.6
00:50 1015 29.97 844 24.92 12 53.5 47 1 33.8
00:55 1015 29.97 844 24.92 11.8 53.3 49 1.5 34.7
01:00 1015 29.97 844 24.92 11.2 52.2 50 1.1 34
01:05 1015 29.97 844 24.92 11.1 52 49 0.9 33.6
01:10 1015 29.97 844 24.92 11.2 52.2 50 1.1 34
01:15 1015 29.97 844 24.92 11.2 52.1 50 1.1 34
01:20 1015 29.97 844 24.92 11.2 52.2 47 0.5 32.9
01:25 1015 29.97 844 24.92 11.6 53 48 1 33.9
01:30 1015 29.97 844 24.92 11.2 52.2 49 1 33.8
01:35 1015 29.97 844 24.92 11.1 51.9 49 0.9 33.6
01:40 1015 29.97 844 24.92 11 51.8 49 0.8 33.4
01:45 1015 29.97 844 24.92 11.3 52.3 48 0.8 33.4
01:50 1015 29.97 844 24.92 11.7 53 47 0.8 33.5
01:55 1015 29.97 844 24.92 11.5 52.7 48 0.9 33.7
02:00 1014 29.94 844 24.92 11.2 52.2 49 0.9 33.6
02:05 1014 29.94 844 24.92 11.1 51.9 49 0.9 33.6
02:10 1014 29.94 844 24.92 11 51.8 50 0.9 33.6
02:15 1014 29.94 844 24.92 11 51.8 49 0.8 33.5
02:20 1015 29.97 844 24.92 10.9 51.7 50 1 33.8
02:25 1014 29.94 844 24.92 10.9 51.6 49 0.6 33.1
02:30 1014 29.94 844 24.92 11.1 51.9 48 0.5 33
02:35 1014 29.94 843 24.89 11.2 52.1 48 0.7 33.3
02:40 1014 29.94 843 24.89 11.1 52 48 0.6 33
02:45 1014 29.94 843 24.89 11.1 52 49 0.7 33.3
02:50 1014 29.94 843 24.89 11 51.8 51 1.2 34.2
02:55 1014 29.94 843 24.89 10.8 51.4 51 1.1 33.9
03:00 1014 29.94 843 24.89 10.7 51.3 50 0.8 33.5
03:05 1014 29.94 843 24.89 10.9 51.5 51 1.1 33.9
03:10 1014 29.94 843 24.89 10.9 51.5 51 1.3 34.3
03:15 1014 29.94 843 24.89 10.6 51.1 52 1.2 34.1
03:20 1014 29.94 843 24.89 10.7 51.3 51 1 33.7
03:25 1014 29.94 843 24.89 11.1 52 53 1.8 35.3
03:30 1014 29.94 844 24.92 10.8 51.4 55 2.2 36
03:35 1014 29.94 844 24.92 10.5 50.8 57 2.3 36.2
03:40 1014 29.94 844 24.92 10.3 50.6 58 2.4 36.3
03:45 1014 29.94 844 24.92 10.3 50.5 59 2.6 36.7
03:50 1014 29.94 844 24.92 10.2 50.4 61 3.1 37.6
03:55 1014 29.94 844 24.92 10.1 50.2 62 3.3 37.9
04:00 1014 29.94 844 24.92 10 49.9 64 3.4 38.2
04:05 1014 29.94 844 24.92 9.8 49.7 65 3.6 38.5
04:10 1015 29.97 844 24.92 9.6 49.3 66 3.6 38.5
04:15 1015 29.97 844 24.92 9.5 49.1 69 4.1 39.4
04:20 1015 29.97 844 24.92 9.2 48.5 69 3.9 39.1
04:25 1015 29.97 844 24.92 9.2 48.5 70 3.9 39.1
04:30 1015 29.97 844 24.92 9.1 48.5 70 4 39.2
04:35 1015 29.97 844 24.92 9.1 48.3 70 4 39.1
04:40 1014 29.94 844 24.92 9 48.2 71 4 39.2
04:45 1014 29.94 844 24.92 8.9 48 71 4 39.1
04:50 1014 29.94 844 24.92 8.8 47.9 71 3.8 38.9
04:55 1014 29.94 844 24.92 8.9 48 71 3.9 39.1
05:00 1014 29.94 844 24.92 8.7 47.6 73 4 39.3
05:05 1014 29.94 844 24.92 8.4 47.1 73 3.9 39.1
05:10 1014 29.94 844 24.92 8.4 47.2 73 3.8 38.8
05:15 1014 29.94 843 24.89 8.4 47.1 73 3.9 38.9
05:20 1014 29.94 843 24.89 8.3 47 73 3.8 38.9
05:25 1014 29.94 843 24.89 8.4 47.1 73 3.8 38.8
05:30 1014 29.94 843 24.89 8.5 47.2 72 3.7 38.7
05:35 1014 29.94 843 24.89 8.4 47.1 73 3.9 39
05:40 1014 29.94 843 24.89 8 46.4 74 3.7 38.7
05:45 1014 29.94 843 24.89 7.8 46 75 3.6 38.5
05:50 1014 29.94 843 24.89 7.6 45.7 75 3.5 38.4
05:55 1014 29.94 843 24.89 7.6 45.7 75 3.5 38.3
06:00 1014 29.94 843 24.89 7.5 45.5 76 3.5 38.3
06:05 1014 29.94 843 24.89 7.8 46 74 3.5 38.3
06:10 1014 29.94 843 24.89 7.8 46.1 74 3.5 38.2
06:15 1014 29.94 843 24.89 7.6 45.7 75 3.4 38.2
06:20 1014 29.94 843 24.89 7.7 45.9 74 3.3 38
06:25 1014 29.94 843 24.89 7.8 46 74 3.4 38.1
06:30 1014 29.94 843 24.89 8.1 46.5 72 3.4 38.1
06:35 1014 29.94 843 24.89 8.5 47.3 70 3.4 38
06:40 1014 29.94 843 24.89 8.5 47.3 71 3.5 38.3
06:45 1014 29.94 843 24.89 8.1 46.6 72 3.4 38.1
06:50 1014 29.94 843 24.89 8 46.4 72 3.3 38
06:55 1014 29.94 843 24.89 7.9 46.2 73 3.3 38
07:00 1014 29.94 843 24.89 8 46.3 72 3.3 37.9
07:05 1014 29.94 843 24.89 8.1 46.6 72 3.3 37.9
07:10 1014 29.94 843 24.89 8.3 47 71 3.4 38.2
07:15 1014 29.94 843 24.89 8.7 47.6 71 3.7 38.6
07:20 1014 29.94 843 24.89 9 48.1 70 3.8 38.9
07:25 1014 29.94 843 24.89 9.1 48.4 71 4.1 39.3
07:30 1014 29.94 843 24.89 8.7 47.6 76 4.7 40.5
07:35 1014 29.94 843 24.89 8.5 47.3 78 4.9 40.8
07:40 1014 29.94 843 24.89 8.4 47.2 79 5 40.9
07:45 1014 29.94 844 24.92 8.3 47 80 5.1 41.1
07:50 1014 29.94 844 24.92 8.2 46.8 82 5.3 41.6
07:55 1015 29.97 844 24.92 7.9 46.3 84 5.5 41.8
08:00 1015 29.97 844 24.92 7.8 46 86 5.5 41.9
08:05 1015 29.97 844 24.92 6 42.8 84 3.4 38.2
08:10 1015 29.97 845 24.95 3.8 38.9 88 2 35.6
08:15 1016 30 845 24.95 3.1 37.6 89 1.5 34.6
08:20 1016 30 845 24.95 2.8 37 90 1.3 34.4
08:25 1016 30 845 24.95 2.7 36.8 89 1.1 34
08:30 1016 30 845 24.95 2.4 36.4 90 1 33.7
08:35 1017 30.03 846 24.98 2.4 36.4 91 1.1 34
08:40 1017 30.03 846 24.98 2.5 36.5 91 1.1 34
08:45 1017 30.03 847 25.01 2.5 36.5 91 1.2 34.1
08:50 1018 30.06 847 25.01 2.6 36.7 90 1.2 34.1
08:55 1018 30.06 847 25.01 2.6 36.7 90 1.1 34
09:00 1018 30.06 847 25.01 2.5 36.5 89 0.9 33.6
09:05 1018 30.06 847 25.01 2.3 36.1 89 0.7 33.2
09:10 1018 30.06 847 25.01 2.2 36 89 0.6 33.1
09:15 1018 30.06 847 25.01 2 35.7 89 0.4 32.8
09:20 1018 30.06 847 25.01 1.3 34.3 90 -0.1 31.7
09:25 1018 30.06 847 25.01 0.5 32.8 93 -0.6 30.9
09:30 1018 30.06 847 25.01 0.3 32.5 93 -0.7 30.8
09:35 1018 30.06 848 25.04 0.2 32.4 94 -0.7 30.8
09:40 1018 30.06 848 25.04 0.2 32.4 94 -0.6 30.9
09:45 1018 30.06 848 25.04 0.3 32.5 94 -0.6 30.9
09:50 1018 30.06 848 25.04 0.2 32.4 94 -0.6 30.9
09:55 1018 30.06 848 25.04 0.4 32.7 94 -0.4 31.2
10:00 1018 30.06 848 25.04 0.5 32.9 94 -0.3 31.4
10:05 1018 30.06 848 25.04 0.7 33.3 94 -0.2 31.7
10:10 1018 30.06 847 25.01 0.9 33.5 94 -0 32
10:15 1018 30.06 848 25.04 1 33.9 93 0.1 32.2
10:20 1018 30.06 848 25.04 1.2 34.2 92 0.1 32.1
10:25 1018 30.06 848 25.04 1.4 34.5 92 0.2 32.3
10:30 1018 30.06 847 25.01 1.7 35.1 90 0.3 32.5
10:35 1018 30.06 847 25.01 2 35.7 89 0.4 32.8
10:40 1018 30.06 847 25.01 2.3 36.2 87 0.4 32.7
10:45 1018 30.06 847 25.01 2.7 36.9 86 0.6 33
10:50 1018 30.06 847 25.01 3.4 38.1 85 1 33.9
10:55 1018 30.06 847 25.01 4.2 39.5 80 1.1 33.9
11:00 1018 30.06 847 25.01 4.6 40.3 77 0.9 33.7
11:05 1018 30.06 847 25.01 4.3 39.8 80 1.1 34
11:10 1018 30.06 847 25.01 4.6 40.3 78 1.2 34.1
11:15 1018 30.06 847 25.01 5.3 41.6 76 1.5 34.7
11:20 1018 30.06 847 25.01 5.9 42.6 75 1.9 35.3
11:25 1018 30.06 847 25.01 6 42.8 75 1.9 35.3
11:30 1018 30.06 847 25.01 6.3 43.3 70 1.3 34.3
11:35 1018 30.06 847 25.01 6.3 43.3 73 1.8 35.2
11:40 1018 30.06 847 25.01 6.7 44 73 2.2 35.9
11:45 1018 30.06 847 25.01 7.1 44.7 67 1.4 34.6
11:50 1018 30.06 847 25.01 7.2 45 68 1.7 35
11:55 1018 30.06 847 25.01 7.2 44.9 67 1.5 34.7
12:00 1018 30.06 847 25.01 7.6 45.8 68 2.2 35.9
12:05 1018 30.06 847 25.01 8.1 46.7 65 2 35.6
12:10 1018 30.06 847 25.01 8 46.5 64 1.8 35.2
12:15 1018 30.06 847 25.01 8.2 46.8 63 1.7 35
12:20 1018 30.06 847 25.01 8.2 46.8 62 1.4 34.6
12:25 1017 30.03 847 25.01 8.4 47.2 61 1.3 34.4
12:30 1017 30.03 847 25.01 8.7 47.6 58 0.9 33.5
12:35 1017 30.03 847 25.01 8 46.5 64 1.8 35.2
12:40 1017 30.03 847 25.01 8.3 47 61 1.3 34.4
12:45 1017 30.03 846 24.98 8.5 47.2 61 1.4 34.5
12:50 1017 30.03 846 24.98 8.2 46.8 64 1.9 35.4
12:55 1017 30.03 846 24.98 7.8 46 62 1 33.9
13:00 1017 30.03 846 24.98 7.8 46 62 1 33.9
13:05 1017 30.03 846 24.98 8.4 47.2 57 0.5 32.8
13:10 1017 30.03 846 24.98 9 48.1 59 1.3 34.4
13:15 1017 30.03 846 24.98 9.6 49.2 56 1.3 34.4
13:20 1017 30.03 846 24.98 10 50.1 55 1.4 34.6
13:25 1017 30.03 846 24.98 10.9 51.6 51 1.1 34.1
13:30 1017 30.03 846 24.98 11.4 52.5 51 1.6 34.9
13:35 1017 30.03 846 24.98 10.3 50.5 56 2 35.5
13:40 1017 30.03 846 24.98 9.3 48.8 54 0.6 33.1
13:45 1017 30.03 846 24.98 9.9 49.7 54 1 33.8
13:50 1017 30.03 846 24.98 11.3 52.4 50 1.3 34.4
13:55 1017 30.03 846 24.98 11.2 52.2 52 1.7 35
14:00 1016 30 846 24.98 10.1 50.3 55 1.5 34.7
14:05 1016 30 846 24.98 10.4 50.8 51 0.7 33.3
14:10 1016 30 846 24.98 10.8 51.4 53 1.5 34.8
14:15 1016 30 846 24.98 11 51.7 51 1.2 34.2
14:20 1016 30 845 24.95 11.2 52.2 50 1.3 34.4
14:25 1016 30 845 24.95 11.5 52.6 51 1.6 34.9
14:30 1016 30 845 24.95 11.4 52.4 50 1.3 34.3
14:35 1016 30 845 24.95 10.9 51.6 51 1.1 34
14:40 1016 30 845 24.95 10.3 50.5 52 0.9 33.5
14:45 1016 30 845 24.95 11 51.9 50 1.1 34
14:50 1016 30 845 24.95 11.5 52.6 48 0.9 33.7
14:55 1016 30 845 24.95 11.2 52.2 48 0.7 33.2
15:00 1016 30 845 24.95 11.5 52.6 50 1.4 34.6
15:05 1016 30 845 24.95 11.1 52 48 0.6 33.1
15:10 1016 30 845 24.95 12.2 53.9 45 0.7 33.3
15:15 1016 30 845 24.95 11.7 53.1 46 0.4 32.7
15:20 1016 30 845 24.95 11.7 53 44 -0.2 31.6
15:25 1016 30 845 24.95 12.2 53.9 43 -0 32
15:30 1016 30 845 24.95 12.4 54.4 41 -0.4 31.2
15:35 1016 30 845 24.95 11.9 53.3 43 -0.2 31.6
15:40 1016 30 845 24.95 11 51.8 45 -0.3 31.4
15:45 1015 29.97 845 24.95 11.3 52.3 43 -0.7 30.7
15:50 1015 29.97 845 24.95 11.1 52 45 -0.4 31.3
15:55 1015 29.97 845 24.95 10.6 51 46 -0.6 30.9
16:00 1015 29.97 844 24.92 10.5 50.9 44 -1.1 30.1
16:05 1015 29.97 844 24.92 11.1 51.9 42 -1.4 29.6
16:10 1015 29.97 844 24.92 11.8 53.2 41 -1 30.1
16:15 1015 29.97 844 24.92 12.3 54.1 39 -1.3 29.6
16:20 1015 29.97 844 24.92 12.6 54.7 37 -1.7 28.9
16:25 1015 29.97 844 24.92 12.9 55.1 37 -1.6 29.2
16:30 1015 29.97 844 24.92 12.9 55.1 36 -1.7 29
16:35 1015 29.97 844 24.92 11.8 53.2 39 -1.7 29
16:40 1015 29.97 844 24.92 12 53.5 37 -2.1 28.2
16:45 1015 29.97 844 24.92 12.4 54.2 37 -1.9 28.7
16:50 1015 29.97 844 24.92 12.1 53.9 39 -1.5 29.3
16:55 1015 29.97 844 24.92 12.1 53.9 37 -2 28.4
17:00 1015 29.97 844 24.92 12.6 54.6 35 -2.4 27.7
17:05 1015 29.97 844 24.92 12.6 54.7 36 -2.1 28.3
17:10 1015 29.97 844 24.92 12.5 54.5 36 -1.9 28.5
17:15 1015 29.97 844 24.92 12.6 54.6 37 -1.9 28.6
17:20 1015 29.97 844 24.92 12.4 54.3 37 -1.7 28.9
17:25 1014 29.94 844 24.92 12.1 53.8 38 -1.8 28.8
17:30 1014 29.94 844 24.92 11.9 53.3 38 -1.9 28.5
17:35 1014 29.94 844 24.92 11.7 53.1 38 -1.9 28.6
17:40 1014 29.94 844 24.92 11.5 52.8 39 -1.7 28.9
17:45 1014 29.94 843 24.89 11.4 52.5 40 -1.8 28.8
17:50 1014 29.94 843 24.89 11.1 52 41 -1.5 29.3
17:55 1014 29.94 843 24.89 11.2 52.2 41 -1.5 29.3
18:00 1014 29.94 843 24.89 11.1 52 42 -1.2 29.9
18:05 1014 29.94 843 24.89 10.9 51.5 45 -0.6 30.9
18:10 1014 29.94 843 24.89 10.8 51.4 46 -0.4 31.2
18:15 1014 29.94 843 24.89 10.7 51.3 46 -0.5 31
18:20 1014 29.94 843 24.89 10.8 51.4 47 -0.2 31.7
18:25 1014 29.94 843 24.89 10.5 51 47 -0.3 31.4
18:30 1014 29.94 843 24.89 10.5 50.9 46 -0.5 31.2
18:35 1014 29.94 843 24.89 10.7 51.3 46 -0.4 31.4
18:40 1014 29.94 843 24.89 10.7 51.3 47 -0 31.9
18:45 1014 29.94 843 24.89 10.6 51 49 0.3 32.6
18:50 1014 29.94 843 24.89 10.4 50.8 48 0 32.1
18:55 1014 29.94 843 24.89 10.5 50.9 49 0.2 32.4
19:00 1014 29.94 843 24.89 10.4 50.6 50 0.5 32.9
19:05 1014 29.94 843 24.89 10.2 50.4 54 1.4 34.5
19:10 1014 29.94 843 24.89 10.1 50.1 57 2 35.7
19:15 1014 29.94 843 24.89 9.8 49.7 61 2.6 36.7
19:20 1014 29.94 843 24.89 9.6 49.4 62 2.8 37.1
19:25 1014 29.94 843 24.89 9.4 49 65 3.1 37.6
19:30 1014 29.94 843 24.89 9.2 48.6 67 3.4 38
19:35 1014 29.94 843 24.89 9 48.2 68 3.4 38.1
19:40 1014 29.94 843 24.89 8.9 48 68 3.4 38.2
19:45 1014 29.94 843 24.89 8.8 47.8 69 3.4 38.2
19:50 1014 29.94 843 24.89 8.7 47.7 69 3.4 38.1
19:55 1014 29.94 843 24.89 8.8 47.8 67 3 37.4
20:00 1014 29.94 843 24.89 8.9 48 67 3.1 37.7
20:05 1014 29.94 843 24.89 8.7 47.7 67 3 37.4
20:10 1014 29.94 843 24.89 8.5 47.4 68 2.9 37.2
20:15 1014 29.94 843 24.89 8.4 47.1 69 3.1 37.6
20:20 1014 29.94 843 24.89 8.2 46.8 69 2.9 37.2
20:25 1014 29.94 843 24.89 8.2 46.8 69 2.9 37.3
20:30 1014 29.94 843 24.89 8.1 46.6 68 2.6 36.7
20:35 1014 29.94 843 24.89 8.2 46.7 67 2.5 36.6
20:40 1014 29.94 843 24.89 8.3 46.9 69 2.9 37.3
20:45 1014 29.94 843 24.89 8.2 46.8 68 2.6 36.7
20:50 1014 29.94 843 24.89 8.4 47 67 2.6 36.6
20:55 1014 29.94 843 24.89 8.5 47.3 68 2.9 37.2
21:00 1014 29.94 843 24.89 8.5 47.2 65 2.2 36
21:05 1014 29.94 843 24.89 8.4 47.1 66 2.3 36.2
21:10 1014 29.94 843 24.89 8.5 47.2 63 1.9 35.4
21:15 1014 29.94 843 24.89 8.6 47.4 61 1.5 34.7
21:20 1014 29.94 843 24.89 8.6 47.5 60 1.3 34.3
21:25 1014 29.94 843 24.89 8.5 47.3 60 1.3 34.3
21:30 1014 29.94 843 24.89 8.2 46.8 62 1.4 34.5
21:35 1014 29.94 843 24.89 8 46.4 64 1.7 35.1
21:40 1014 29.94 843 24.89 7.5 45.5 66 1.6 34.9
21:45 1014 29.94 843 24.89 7.2 44.9 69 1.8 35.3
21:50 1013 29.91 843 24.89 6.9 44.5 69 1.7 35.1
21:55 1013 29.91 843 24.89 7 44.5 69 1.8 35.2
22:00 1013 29.91 843 24.89 6.7 44 70 1.6 35
22:05 1013 29.91 843 24.89 6.5 43.7 70 1.5 34.6
22:10 1013 29.91 842 24.86 6.5 43.7 70 1.5 34.7
22:15 1013 29.91 842 24.86 6.3 43.4 70 1.2 34.2
22:20 1013 29.91 842 24.86 6.3 43.3 71 1.3 34.4
22:25 1013 29.91 842 24.86 5.9 42.7 72 1.2 34.2
22:30 1013 29.91 842 24.86 5.7 42.3 72 1.1 34
22:35 1013 29.91 842 24.86 5.6 42.1 74 1.3 34.3
22:40 1013 29.91 842 24.86 5.5 41.8 74 1.2 34.2
22:45 1013 29.91 842 24.86 5.3 41.6 75 1.2 34.2
22:50 1013 29.91 842 24.86 5.1 41.3 75 1.1 34
22:55 1013 29.91 842 24.86 4.9 40.8 77 1.1 34
23:00 1013 29.91 842 24.86 4.8 40.6 77 1 33.8
23:05 1013 29.91 842 24.86 4.7 40.5 75 0.7 33.3
23:10 1013 29.91 842 24.86 4.9 40.9 74 0.7 33.3
23:15 1013 29.91 842 24.86 4.8 40.6 75 0.8 33.4
23:20 1013 29.91 842 24.86 4.6 40.4 75 0.7 33.2
23:25 1013 29.91 842 24.86 4.7 40.4 74 0.4 32.7
23:30 1013 29.91 842 24.86 4.8 40.7 73 0.5 32.9
23:35 1012 29.88 842 24.86 5 40.9 73 0.5 32.9
23:40 1012 29.88 842 24.86 4.7 40.5 74 0.5 32.9
23:45 1012 29.88 842 24.86 4.5 40.1 74 0.4 32.7
23:50 1012 29.88 841 24.83 4.5 40.1 73 0.1 32.2
23:55 1012 29.88 841 24.83 4.7 40.4 72 0.1 32.2
24:00 1012 29.88 841 24.83 4.6 40.3 72 0.1 32.1